Chuckey, TN (37641)

3:58 PM EDT on July 28, 2015 (GMT -0400)
Old Jonesboro Rd | | Change Station
CLOSE
Current Station
Personal Weather Station
Location: Chuckey, TN
Elevation: 1365 ft
Nearby Weather Stations

Elev 1365 ft 36.16 °N, 82.69 °W | Updated 54 seconds ago

Partly Cloudy
Partly Cloudy
88.6 °F
Feels Like 98 °F
N
0.0
Wind Variable Wind from West
Gusts 0.0 mph

Today
High -- | Low -- °F
--% Chance of Precip.
Yesterday
High -- | Low -- °F
Precip. -- in
6:34 AM 8:39 PM
Waxing Gibbous, 91% visible
Pressure 29.91 in
Visibility 10.0 miles
Clouds Few 3500 ft
Scattered Clouds 4800 ft
Scattered Clouds 25000 ft
Heat Index 98 °F
Dew Point 74 °F
Humidity 63%
Rainfall 0.30 in
Snow Depth Not available.
UV 7 out of 12
Pollen 3.60 out of 12
Air Quality Not available.
Flu Activity Not available.
METAR KTRI 281953Z 00000KT 10SM FEW035 SCT048 SCT250 33/19 A3000 RMK AO2 SLP128 T03330194

More Conditions Fewer Conditions

Pressure 29.91 in
Visibility 10.0 miles
Clouds Few 3500 ft
Scattered Clouds 4800 ft
Scattered Clouds 25000 ft
Heat Index 98 °F
Dew Point 74 °F
Humidity 63%
Rainfall 0.30 in
Snow Depth Not available.
UV 7 out of 12
Pollen 3.60 out of 12
Air Quality Not available.
Flu Activity Not available.
METAR KTRI 281953Z 00000KT 10SM FEW035 SCT048 SCT250 33/19 A3000 RMK AO2 SLP128 T03330194

More Conditions Fewer Conditions

10-Day Weather Forecast

×

Almanac

Astronomy

Jul. 28, 2015 Rise Set
Actual Time
Civil Twilight
Nautical Twilight
Astronomical Twilight
Moon
Length of Visible Light
Length of Day
Tomorrow will be .
, % of the Moon is Illuminated

Today's Extremes

State Highs State Lows

Community

WunderPhotos

Upload Photos

1,841,935 photos uploaded!

WunderBlogs® & News

Nearby

Air Quality

  Air Quality AQ Index Pollutant
Not available.

Snow Depth

Station Depth Elevation

Earthquake Activity

City Distance Mag. Time & Date
Minimum magnitude displayed is 2.5.

Coastal Water Temperatures

Place Temperature

Stations

Nearby Weather Stations

Station Location Temp. Windchill Dew Point Humidity Wind Precip. Elev Updated Type